TimeCST,TemperatureF,Dew PointF,Humidity,Sea Level PressureIn,VisibilityMPH,Wind Direction,Wind SpeedMPH,Gust SpeedMPH,PrecipitationIn,Events,Conditions,WindDirDegrees,DateUTC
12:15 AM,28.4,23.0,80,29.51,10.0,SSW,11.5,-,N/A,,Scattered Clouds,200,2014-01-04 06:15:00
12:35 AM,30.2,23.0,75,29.52,10.0,SSW,11.5,-,N/A,,Mostly Cloudy,200,2014-01-04 06:35:00
12:55 AM,30.2,23.0,75,29.51,10.0,SSW,11.5,18.4,N/A,,Overcast,210,2014-01-04 06:55:00
1:15 AM,30.2,24.8,80,29.51,10.0,SSW,11.5,18.4,N/A,,Overcast,210,2014-01-04 07:15:00
1:35 AM,32.0,24.8,75,29.51,10.0,SSW,12.7,19.6,N/A,,Overcast,210,2014-01-04 07:35:00
1:55 AM,32.0,26.6,80,29.51,10.0,SSW,11.5,17.3,N/A,,Overcast,210,2014-01-04 07:55:00
2:15 AM,32.0,26.6,80,29.52,10.0,SW,10.4,-,N/A,,Overcast,220,2014-01-04 08:15:00
2:35 AM,32.0,26.6,80,29.53,10.0,SW,10.4,16.1,N/A,,Overcast,220,2014-01-04 08:35:00
2:55 AM,32.0,26.6,80,29.53,10.0,SW,11.5,-,N/A,,Mostly Cloudy,220,2014-01-04 08:55:00
3:15 AM,32.0,26.6,80,29.54,10.0,SW,10.4,-,N/A,,Mostly Cloudy,230,2014-01-04 09:15:00
3:35 AM,32.0,26.6,80,29.55,10.0,SW,11.5,-,N/A,,Overcast,220,2014-01-04 09:35:00
3:55 AM,32.0,26.6,80,29.56,10.0,WSW,9.2,-,N/A,,Mostly Cloudy,240,2014-01-04 09:55:00
4:15 AM,32.0,26.6,80,29.56,10.0,WSW,6.9,-,N/A,,Scattered Clouds,240,2014-01-04 10:15:00
4:35 AM,30.2,26.6,86,29.58,10.0,West,3.5,-,N/A,,Mostly Cloudy,260,2014-01-04 10:35:00
4:55 AM,30.2,28.4,93,29.59,10.0,West,8.1,-,N/A,,Overcast,280,2014-01-04 10:55:00
5:15 AM,33.8,30.2,87,29.60,10.0,WNW,25.3,32.2,N/A,,Overcast,300,2014-01-04 11:15:00
5:35 AM,30.2,26.6,86,29.62,5.0,NW,20.7,26.5,N/A,,Overcast,320,2014-01-04 11:35:00
5:55 AM,26.6,21.2,80,29.66,7.0,NW,11.5,23.0,N/A,,Overcast,310,2014-01-04 11:55:00
6:15 AM,23.0,17.6,80,29.68,7.0,NW,19.6,31.1,N/A,,Overcast,310,2014-01-04 12:15:00
6:35 AM,21.2,15.8,80,29.71,7.0,NW,23.0,28.8,N/A,,Overcast,310,2014-01-04 12:35:00
6:55 AM,19.4,14.0,80,29.72,7.0,NW,21.9,29.9,N/A,,Overcast,310,2014-01-04 12:55:00
7:15 AM,17.6,10.4,73,29.74,7.0,NW,23.0,32.2,N/A,,Overcast,310,2014-01-04 13:15:00
7:35 AM,15.8,10.4,79,29.76,7.0,NW,19.6,31.1,N/A,,Overcast,310,2014-01-04 13:35:00
7:55 AM,14.0,8.6,79,29.79,1.8,NW,25.3,31.1,N/A,Snow,Light Snow,320,2014-01-04 13:55:00
8:15 AM,14.0,8.6,79,29.81,3.0,NW,20.7,33.4,N/A,Snow,Light Snow,320,2014-01-04 14:15:00
8:35 AM,12.2,8.6,85,29.83,4.0,NW,19.6,31.1,N/A,Snow,Light Snow,320,2014-01-04 14:35:00
8:55 AM,12.2,6.8,79,29.83,4.0,NNW,19.6,27.6,N/A,Snow,Light Snow,330,2014-01-04 14:55:00
9:15 AM,12.2,6.8,79,29.84,4.0,NNW,17.3,28.8,N/A,Snow,Light Snow,330,2014-01-04 15:15:00
9:35 AM,14.0,8.6,79,29.87,5.0,NNW,16.1,26.5,N/A,,Haze,330,2014-01-04 15:35:00
9:55 AM,14.0,8.6,79,29.88,7.0,NNW,19.6,26.5,N/A,,Overcast,330,2014-01-04 15:55:00
10:15 AM,14.0,8.6,79,29.90,4.0,NW,17.3,28.8,N/A,Snow,Light Snow,320,2014-01-04 16:15:00
10:35 AM,14.0,8.6,79,29.89,3.0,NNW,17.3,26.5,N/A,Snow,Light Snow,330,2014-01-04 16:35:00
10:55 AM,14.0,8.6,79,29.89,3.0,NNW,16.1,21.9,N/A,Snow,Light Snow,330,2014-01-04 16:55:00
11:15 AM,14.0,8.6,79,29.88,3.0,NNW,19.6,24.2,N/A,Snow,Light Snow,340,2014-01-04 17:15:00
11:35 AM,14.0,8.6,79,29.89,5.0,NNW,18.4,28.8,N/A,Snow,Light Snow,330,2014-01-04 17:35:00
11:55 AM,14.0,8.6,79,29.91,3.0,NNW,16.1,21.9,N/A,Snow,Light Snow,330,2014-01-04 17:55:00
12:15 PM,14.0,6.8,73,29.91,7.0,NNW,13.8,-,N/A,,Overcast,330,2014-01-04 18:15:00
12:35 PM,14.0,6.8,73,29.89,7.0,NNW,13.8,24.2,N/A,,Mostly Cloudy,340,2014-01-04 18:35:00
12:55 PM,14.0,6.8,73,29.92,10.0,NNW,17.3,20.7,N/A,,Mostly Cloudy,340,2014-01-04 18:55:00
1:15 PM,14.0,6.8,73,29.94,10.0,NW,16.1,20.7,N/A,,Scattered Clouds,320,2014-01-04 19:15:00
1:35 PM,14.0,8.6,79,29.95,4.0,NW,13.8,19.6,N/A,Snow,Light Snow,320,2014-01-04 19:35:00
1:55 PM,14.0,8.6,79,29.97,7.0,NNW,18.4,23.0,N/A,Snow,Light Snow,330,2014-01-04 19:55:00
2:15 PM,14.0,6.8,73,29.97,10.0,NW,16.1,24.2,N/A,,Mostly Cloudy,320,2014-01-04 20:15:00
2:35 PM,14.0,5.0,67,29.98,10.0,NW,13.8,-,N/A,,Scattered Clouds,320,2014-01-04 20:35:00
2:55 PM,15.8,5.0,62,29.97,10.0,NNW,17.3,23.0,N/A,,Clear,340,2014-01-04 20:55:00
3:15 PM,14.0,5.0,67,29.98,10.0,NNW,17.3,25.3,N/A,,Clear,330,2014-01-04 21:15:00
3:35 PM,14.0,6.8,73,30.02,5.0,NW,13.8,21.9,N/A,Snow,Light Snow,320,2014-01-04 21:35:00
3:55 PM,12.2,5.0,73,30.03,5.0,NW,16.1,19.6,N/A,,Haze,320,2014-01-04 21:55:00
4:15 PM,12.2,5.0,73,30.04,10.0,NNW,15.0,21.9,N/A,,Scattered Clouds,330,2014-01-04 22:15:00
4:35 PM,12.2,3.2,67,30.04,10.0,NNW,18.4,-,N/A,,Clear,330,2014-01-04 22:35:00
4:55 PM,12.2,3.2,67,30.04,10.0,NNW,16.1,-,N/A,,Clear,330,2014-01-04 22:55:00
5:15 PM,10.4,3.2,73,30.05,10.0,NNW,16.1,-,N/A,,Clear,330,2014-01-04 23:15:00
5:35 PM,10.4,1.4,67,30.07,10.0,NNW,13.8,21.9,N/A,,Clear,330,2014-01-04 23:35:00
5:55 PM,10.4,3.2,73,30.07,10.0,NNW,13.8,-,N/A,,Clear,330,2014-01-04 23:55:00
6:15 PM,10.4,1.4,67,30.08,10.0,NNW,17.3,21.9,N/A,,Clear,330,2014-01-05 00:15:00
6:35 PM,10.4,1.4,67,30.08,10.0,NNW,16.1,-,N/A,,Clear,330,2014-01-05 00:35:00
6:55 PM,8.6,1.4,73,30.10,10.0,NNW,16.1,-,N/A,,Clear,330,2014-01-05 00:55:00
7:15 PM,8.6,1.4,73,30.11,10.0,NNW,12.7,24.2,N/A,,Clear,330,2014-01-05 01:15:00
7:35 PM,8.6,-0.4,67,30.12,10.0,NNW,15.0,21.9,N/A,,Clear,330,2014-01-05 01:35:00
7:55 PM,8.6,-0.4,67,30.13,10.0,NNW,17.3,26.5,N/A,,Clear,330,2014-01-05 01:55:00
8:15 PM,6.8,-0.4,72,30.13,10.0,NNW,20.7,24.2,N/A,,Clear,340,2014-01-05 02:15:00
8:35 PM,5.0,-2.2,72,30.13,10.0,NNW,18.4,25.3,N/A,,Clear,330,2014-01-05 02:35:00
8:55 PM,5.0,-2.2,72,30.14,10.0,NNW,18.4,25.3,N/A,,Clear,340,2014-01-05 02:55:00
9:15 PM,5.0,-2.2,72,30.14,10.0,NNW,18.4,21.9,N/A,,Clear,340,2014-01-05 03:15:00
9:35 PM,5.0,-4.0,66,30.16,10.0,NNW,16.1,21.9,N/A,,Clear,330,2014-01-05 03:35:00
9:55 PM,5.0,-4.0,66,30.16,10.0,NNW,16.1,24.2,N/A,,Clear,340,2014-01-05 03:55:00
10:15 PM,3.2,-4.0,72,30.17,10.0,NNW,19.6,27.6,N/A,,Clear,340,2014-01-05 04:15:00
10:35 PM,3.2,-4.0,72,30.16,10.0,NNW,19.6,27.6,N/A,,Clear,340,2014-01-05 04:35:00
10:55 PM,3.2,-4.0,72,30.18,10.0,NNW,17.3,26.5,N/A,,Clear,340,2014-01-05 04:55:00
11:15 PM,3.2,-5.8,66,30.18,10.0,NNW,20.7,25.3,N/A,,Clear,340,2014-01-05 05:15:00
11:35 PM,3.2,-5.8,66,30.18,10.0,NNW,16.1,20.7,N/A,,Clear,340,2014-01-05 05:35:00
11:55 PM,3.2,-5.8,66,30.18,10.0,NNW,17.3,24.2,N/A,,Clear,340,2014-01-05 05:55:00